Udine-Campoformido Air Base

LIPD · Friuli Venezia Giulia, 意大利

罗盘
风向 的 风向 340° Udine-Campoformido Air Base 4/22
风: 2 kt, 1 beaufort

1 kt

2 kt
改变
0 ft 1.000 2.000 3.000 4.000 5.000
Cloud Cloud
FEW 400
Cloud Cloud Cloud Cloud Cloud Cloud
BKN 5.000
METAR LIPI 030455Z 34002KT 9999 FEW004 BKN050 08/06 Q1009 RMK BKN VIS MIN 9999 WIND THR06 36002KT WIND THR24/////KT BLU

METAR Udine-Campoformido Air Base - LIPD/UDN

Udine-Campoformido Air Base是,意大利中的小机场。 该机场位于纬度46,03107和经度13,18282。 该机场有一条跑道: 4/22. 本场的ICAO机场代码为LIPD。 该机场的IATA代码为UDN。 机场在Milano FIR中。

该航空气象观测是针对Rivolto Air Base在2024年3月3日 05:55, 当地时间进行的。

机场观察

风向为340°,速度为2 kt。

可见度为10 km 或者更多。

有几云在400 ft的高度 和 碎云在5.000 ft的高度。 破损或更高的上限为5.000 ft。

温度为8 °C,阵风为7 °C。 露点为6 °C,相对湿度为87%。 海平面上的气压为1009 hPa (QNH)。

白天

今天,太阳从06:41升起,在17:56降落。 这适用于Udine-Campoformido Air Base,世界夏令时可能有所不同。 当地时间与世界标准时间之间的时差为+1 小时。 当前,没有夏令时有效。

公司介绍

在这个机场,你可以找到飞行学校 和 跳伞中心。 这个机场上的公司有Aero Club Friulano 和 UPnGO Centro Paracadutismo F.v.g. - UDINE -。

体会

到Vliegles.nl去找飞行课程,跳伞和其他飞行体验。 浏览页面,了解Udine-Campoformido Air Base附近所有可用的活动。 你也可以使用搜索功能来寻找你所在地附近的特定飞行课程、跳伞或其他飞行体验。

跑道

Id 标题 侧风 逆风 侧风 %
4/22 038°-218° 2 kt 1 kt 85 %

逆风成分最大的方向会被突出显示,并用于横风计算。 这并不一定意味着这个方向在使用。

乌云

400 ft FEW 几云
5.000 ft BKN 碎云

温度 & 天气

温度 8 °C
露点 6 °C
相对湿度 87%
风寒 7 °C
Kp-index 0 (0-9)

评论

BKN VIS MIN 9999 WIND THR06 36002KT WIND THR24/////KT

白天

日出
06:41 (10m)
中午
12:19
日落
17:57

小工具

你想在你的网站上有一个关于Udine-Campoformido Air Base的当前航空天气(METAR)的小部件吗?

显示HTML代码
?>